Time;durP1;ratioP1;P1;durP2;ratioP2;P2;SDS_P1;SDS_P2;PMS_P1;PMS_P2;Temp;Humidity;BMP_temperature;BMP_pressure;BME280_temperature;BME280_humidity;BME280_pressure;Samples;Min_cycle;Max_cycle;Signal;HPM_P1;HPM_P2
2022/08/07 00:00:35;;;;;;;;;;;;;;;22.20;59.91;99901.75;5055328;28;19936;-65
2022/08/07 00:03:00;;;;;;;;;;;;;;;22.19;59.55;99891.78;5058234;28;20454;-66
2022/08/07 00:05:26;;;;;;;;;;;;;;;22.18;60.02;99894.91;5051540;28;19975;-66
2022/08/07 00:07:52;;;;;;;;;;;;;;;22.16;59.64;99895.25;5060998;28;20030;-65
2022/08/07 00:10:19;;;;;;;;;;;;;;;22.14;60.29;99891.22;5054227;28;19933;-66
2022/08/07 00:12:45;;;;;;;;;;;;;;;22.13;60.44;99887.59;5064363;28;20430;-65
2022/08/07 00:15:11;;;;;;;;;;;;;;;22.12;60.17;99891.53;5079090;28;20194;-65
2022/08/07 00:17:36;;;;;;;;;;;;;;;22.09;60.23;99887.50;5054090;28;19935;-66
2022/08/07 00:20:03;;;;;;;;;;;;;;;22.08;59.89;99885.06;5041731;28;19962;-67
2022/08/07 00:22:29;;;;;;;;;;;;;;;22.03;59.68;99888.91;5054487;28;19929;-67
2022/08/07 00:24:55;;;;;;;;;;;;;;;22.02;60.27;99878.94;5039491;28;19928;-67
2022/08/07 00:27:22;;;;;;;;;;;;;;;22.04;60.10;99884.16;5064332;28;20027;-67
2022/08/07 00:29:48;;;;;;;;;;;;;;;22.05;60.01;99885.78;5043056;28;19935;-67
2022/08/07 00:32:14;;;;;;;;;;;;;;;22.04;59.94;99882.16;5048662;28;19928;-67
2022/08/07 00:34:40;;;;;;;;;;;;;;;22.04;60.10;99887.72;5023828;28;19935;-67
2022/08/07 00:37:05;;;;;;;;;;;;;;;21.99;60.16;99892.72;5048781;28;19935;-65
2022/08/07 00:39:31;;;;;;;;;;;;;;;21.94;59.98;99902.94;5050361;28;20425;-66
2022/08/07 00:41:58;;;;;;;;;;;;;;;21.91;59.79;99891.69;5057346;28;19947;-67
2022/08/07 00:44:26;;;;;;;;;;;;;;;21.90;60.36;99888.13;5041601;28;20315;-66
2022/08/07 00:46:52;;;;;;;;;;;;;;;21.90;60.35;99888.13;5040291;28;19929;-66
2022/08/07 00:49:17;;;;;;;;;;;;;;;21.89;60.33;99883.72;5058318;28;20026;-65
2022/08/07 00:51:44;;;;;;;;;;;;;;;21.87;60.48;99883.25;5063994;28;19932;-65
2022/08/07 00:54:10;;;;;;;;;;;;;;;21.83;60.38;99893.44;5045351;28;19950;-67
2022/08/07 00:56:36;;;;;;;;;;;;;;;21.81;60.93;99885.47;5046342;28;19932;-65
2022/08/07 00:59:02;;;;;;;;;;;;;;;21.82;61.08;99894.59;5036881;28;19929;-66
2022/08/07 01:01:29;;;;;;;;;;;;;;;21.81;61.17;99876.28;5058678;28;19934;-67
2022/08/07 01:03:55;;;;;;;;;;;;;;;21.78;61.41;99885.34;5031907;28;19929;-66
2022/08/07 01:06:21;;;;;;;;;;;;;;;21.75;61.78;99883.25;5063729;28;19928;-65
2022/08/07 01:08:47;;;;;;;;;;;;;;;21.70;61.95;99883.47;5047608;28;19928;-67
2022/08/07 01:11:13;;;;;;;;;;;;;;;21.66;62.42;99889.75;5047351;28;19963;-67
2022/08/07 01:13:40;;;;;;;;;;;;;;;21.60;62.31;99885.53;5061493;28;19928;-65
2022/08/07 01:16:06;;;;;;;;;;;;;;;21.56;62.66;99892.97;5034322;28;19994;-65
2022/08/07 01:18:33;;;;;;;;;;;;;;;21.55;62.65;99885.78;5029727;28;19928;-65
2022/08/07 01:21:07;;;;;;;;;;;;;;;21.51;62.62;99888.44;5062405;28;19929;-65
2022/08/07 01:23:33;;;;;;;;;;;;;;;21.49;62.91;99889.94;5023917;28;19928;-67
2022/08/07 01:25:59;;;;;;;;;;;;;;;21.44;63.42;99885.41;5051638;28;19929;-68
2022/08/07 01:28:25;;;;;;;;;;;;;;;21.42;63.43;99886.94;5040165;28;19974;-65
2022/08/07 01:30:53;;;;;;;;;;;;;;;21.41;63.48;99888.09;5027234;28;19930;-67
2022/08/07 01:33:20;;;;;;;;;;;;;;;21.37;63.66;99888.75;5029156;28;19928;-65
2022/08/07 01:35:46;;;;;;;;;;;;;;;21.35;63.71;99896.66;5039005;28;19935;-66
2022/08/07 01:38:13;;;;;;;;;;;;;;;21.34;63.91;99892.25;5045493;28;19928;-65
2022/08/07 01:40:42;;;;;;;;;;;;;;;21.29;64.39;99888.88;5031274;28;20422;-66
2022/08/07 01:43:08;;;;;;;;;;;;;;;21.26;64.50;99887.63;5033361;28;19989;-67
2022/08/07 01:45:34;;;;;;;;;;;;;;;21.23;64.48;99891.09;5020632;28;19933;-66
2022/08/07 01:48:01;;;;;;;;;;;;;;;21.21;64.71;99883.09;5037273;28;19928;-70
2022/08/07 01:50:28;;;;;;;;;;;;;;;21.19;65.09;99887.34;5027891;28;19938;-70
2022/08/07 01:52:56;;;;;;;;;;;;;;;21.14;65.21;99888.38;5038630;28;19929;-70
2022/08/07 01:55:25;;;;;;;;;;;;;;;21.13;65.42;99894.31;5041009;28;20402;-70
2022/08/07 01:57:54;;;;;;;;;;;;;;;21.08;64.90;99885.03;5038951;28;20297;-71
2022/08/07 02:00:20;;;;;;;;;;;;;;;21.08;65.20;99881.44;5038361;28;20080;-69
2022/08/07 02:02:49;;;;;;;;;;;;;;;21.08;65.44;99878.66;5036111;28;20547;-70
2022/08/07 02:05:17;;;;;;;;;;;;;;;21.11;65.62;99884.34;5047184;28;20421;-70
2022/08/07 02:07:49;;;;;;;;;;;;;;;21.10;65.14;99890.25;5056604;28;20057;-65
2022/08/07 02:10:17;;;;;;;;;;;;;;;21.05;65.10;99888.47;5034826;28;20343;-66
2022/08/07 02:12:45;;;;;;;;;;;;;;;21.02;65.02;99885.59;5034866;28;19929;-66
2022/08/07 02:15:19;;;;;;;;;;;;;;;21.02;65.07;99880.03;5031683;28;20429;-66
2022/08/07 02:17:47;;;;;;;;;;;;;;;21.05;64.99;99874.59;5055184;28;20297;-69
2022/08/07 02:20:15;;;;;;;;;;;;;;;21.07;65.21;99868.69;5038430;28;19935;-71
2022/08/07 02:22:41;;;;;;;;;;;;;;;21.09;65.00;99872.75;5050798;28;19928;-70
2022/08/07 02:25:08;;;;;;;;;;;;;;;21.12;65.04;99874.03;5034302;28;20391;-70
2022/08/07 02:27:35;;;;;;;;;;;;;;;21.14;64.62;99870.91;5031544;28;20479;-71
2022/08/07 02:30:03;;;;;;;;;;;;;;;21.17;65.03;99861.88;5037965;28;19974;-70
2022/08/07 02:32:34;;;;;;;;;;;;;;;21.18;64.52;99869.88;5046374;28;19928;-70
2022/08/07 02:35:03;;;;;;;;;;;;;;;21.21;64.85;99873.91;5033706;28;19952;-71
2022/08/07 02:37:30;;;;;;;;;;;;;;;21.23;65.23;99866.88;5052303;28;20415;-70
2022/08/07 02:39:58;;;;;;;;;;;;;;;21.23;64.91;99871.63;5047948;28;19932;-70
2022/08/07 02:42:24;;;;;;;;;;;;;;;21.22;64.39;99870.81;5034607;28;20354;-71
2022/08/07 02:44:51;;;;;;;;;;;;;;;21.22;64.50;99867.19;5036810;28;19936;-70
2022/08/07 02:47:21;;;;;;;;;;;;;;;21.27;64.27;99869.78;5039276;28;19963;-65
2022/08/07 02:49:49;;;;;;;;;;;;;;;21.34;64.94;99866.44;5044787;28;19982;-66
2022/08/07 02:52:17;;;;;;;;;;;;;;;21.39;64.68;99868.97;5023413;28;19999;-66
2022/08/07 02:54:44;;;;;;;;;;;;;;;21.42;64.56;99871.06;5021235;28;20471;-67
2022/08/07 02:57:11;;;;;;;;;;;;;;;21.45;64.05;99877.91;5022346;28;19929;-67
2022/08/07 02:59:39;;;;;;;;;;;;;;;21.51;63.87;99876.50;5030416;28;19939;-66
2022/08/07 03:02:06;;;;;;;;;;;;;;;21.54;63.43;99876.63;5038246;28;19933;-65
2022/08/07 03:04:34;;;;;;;;;;;;;;;21.52;63.18;99878.13;5055350;28;19928;-67
2022/08/07 03:07:00;;;;;;;;;;;;;;;21.49;62.65;99881.59;5022718;28;20043;-67
2022/08/07 03:09:26;;;;;;;;;;;;;;;21.51;62.86;99879.28;5068356;28;19929;-67
2022/08/07 03:11:52;;;;;;;;;;;;;;;21.56;62.55;99873.50;5058852;28;20340;-70
2022/08/07 03:14:19;;;;;;;;;;;;;;;21.59;62.48;99875.59;5054829;28;20093;-71
2022/08/07 03:16:45;;;;;;;;;;;;;;;21.68;62.82;99886.63;5060640;28;19928;-69
2022/08/07 03:19:11;;;;;;;;;;;;;;;21.73;62.25;99885.59;5036139;28;19933;-71
2022/08/07 03:21:39;;;;;;;;;;;;;;;21.75;61.91;99884.06;5038051;28;20376;-70
2022/08/07 03:24:06;;;;;;;;;;;;;;;21.80;61.86;99886.63;5054291;28;19951;-72
2022/08/07 03:26:32;;;;;;;;;;;;;;;21.86;61.23;99878.84;5057851;28;19944;-71
2022/08/07 03:29:04;;;;;;;;;;;;;;;21.94;60.90;99879.88;5059265;28;20392;-70
2022/08/07 03:31:32;;;;;;;;;;;;;;;21.95;60.26;99882.28;5037982;28;20035;-70
2022/08/07 03:33:59;;;;;;;;;;;;;;;21.92;60.34;99871.03;5051626;28;19929;-72
2022/08/07 03:36:26;;;;;;;;;;;;;;;21.92;60.15;99871.88;5054437;28;19928;-71
2022/08/07 03:38:56;;;;;;;;;;;;;;;21.94;59.79;99875.13;5051637;28;19934;-70
2022/08/07 03:41:22;;;;;;;;;;;;;;;22.02;59.34;99872.56;5049363;28;20353;-70
2022/08/07 03:43:48;;;;;;;;;;;;;;;22.11;59.20;99870.44;5063500;28;19928;-70
2022/08/07 03:46:15;;;;;;;;;;;;;;;22.13;58.84;99876.47;5049620;28;19928;-70
2022/08/07 03:48:40;;;;;;;;;;;;;;;22.12;58.42;99880.41;5030251;28;19983;-70
2022/08/07 03:51:07;;;;;;;;;;;;;;;22.15;58.24;99870.56;5038694;28;19928;-70
2022/08/07 03:53:38;;;;;;;;;;;;;;;22.18;58.28;99867.88;5038097;28;19979;-71
2022/08/07 03:56:09;;;;;;;;;;;;;;;22.27;58.16;99869.69;5013127;28;20391;-72
2022/08/07 03:58:37;;;;;;;;;;;;;;;22.35;58.02;99868.75;5031522;28;19934;-71
2022/08/07 04:01:05;;;;;;;;;;;;;;;22.41;57.42;99870.13;5043247;28;20420;-71
2022/08/07 04:03:32;;;;;;;;;;;;;;;22.41;57.40;99864.56;5054566;28;20043;-71
2022/08/07 04:05:58;;;;;;;;;;;;;;;22.48;57.16;99864.81;5033296;28;20407;-70
2022/08/07 04:08:25;;;;;;;;;;;;;;;22.55;56.96;99877.31;5012240;28;19978;-71
2022/08/07 04:10:50;;;;;;;;;;;;;;;22.57;56.89;99867.44;5030171;28;19928;-71
2022/08/07 04:13:19;;;;;;;;;;;;;;;22.56;56.86;99876.13;5045950;28;19929;-70
2022/08/07 04:15:45;;;;;;;;;;;;;;;22.57;56.47;99878.56;5006579;28;19951;-70
2022/08/07 04:18:13;;;;;;;;;;;;;;;22.51;56.70;99871.63;5039719;28;19932;-72
2022/08/07 04:20:39;;;;;;;;;;;;;;;22.59;56.91;99869.84;5033654;28;19964;-70
2022/08/07 04:23:05;;;;;;;;;;;;;;;22.65;56.52;99863.66;5015928;28;19955;-70
2022/08/07 04:25:37;;;;;;;;;;;;;;;22.72;56.50;99870.63;5017447;28;19971;-70
2022/08/07 04:28:04;;;;;;;;;;;;;;;22.76;56.23;99877.88;5038895;28;19933;-70
2022/08/07 04:30:31;;;;;;;;;;;;;;;22.79;56.08;99868.84;5045585;28;20337;-70
2022/08/07 04:33:04;;;;;;;;;;;;;;;22.84;56.19;99870.53;5017850;28;19929;-72
2022/08/07 04:35:30;;;;;;;;;;;;;;;22.89;56.04;99873.06;5016819;28;19929;-67
2022/08/07 04:37:56;;;;;;;;;;;;;;;22.95;55.87;99876.41;5018309;28;19929;-66
2022/08/07 04:40:23;;;;;;;;;;;;;;;23.02;55.57;99882.16;5028251;28;20461;-68
2022/08/07 04:42:49;;;;;;;;;;;;;;;23.10;55.10;99885.97;5008501;28;19928;-68
2022/08/07 04:45:15;;;;;;;;;;;;;;;23.14;55.24;99881.28;5047128;28;19928;-67
2022/08/07 04:47:49;;;;;;;;;;;;;;;23.17;54.94;99891.72;5033664;28;19929;-65
2022/08/07 04:50:20;;;;;;;;;;;;;;;23.17;55.22;99886.13;5029865;28;20028;-66
2022/08/07 04:53:09;;;;;;;;;;;;;;;23.17;55.10;99888.13;5031772;28;20014;-65
2022/08/07 04:55:38;;;;;;;;;;;;;;;23.22;54.98;99882.28;5031186;28;20315;-68
2022/08/07 04:58:07;;;;;;;;;;;;;;;23.27;54.68;99884.03;5056091;28;19929;-67
2022/08/07 05:00:37;;;;;;;;;;;;;;;23.29;54.66;99878.88;5045956;28;20025;-67
2022/08/07 05:03:12;;;;;;;;;;;;;;;23.35;54.63;99878.25;5062319;28;19929;-66
2022/08/07 05:05:41;;;;;;;;;;;;;;;23.42;54.55;99882.41;5044115;28;20019;-68
2022/08/07 05:08:11;;;;;;;;;;;;;;;23.46;54.49;99878.53;5037986;28;19929;-67
2022/08/07 05:10:40;;;;;;;;;;;;;;;23.57;54.13;99878.81;5057012;28;19935;-67
2022/08/07 05:13:08;;;;;;;;;;;;;;;23.68;53.65;99889.41;5064302;28;20183;-66
2022/08/07 05:15:35;;;;;;;;;;;;;;;23.71;53.69;99885.88;5033431;28;20384;-67
2022/08/07 05:18:04;;;;;;;;;;;;;;;23.74;53.45;99891.56;5034183;28;19929;-68
2022/08/07 05:20:32;;;;;;;;;;;;;;;23.82;53.24;99886.94;5013270;28;20043;-66
2022/08/07 05:23:00;;;;;;;;;;;;;;;23.90;53.24;99883.16;5055875;28;19982;-65
2022/08/07 05:25:27;;;;;;;;;;;;;;;23.91;53.44;99881.16;5061535;28;19975;-66
2022/08/07 05:27:53;;;;;;;;;;;;;;;23.97;53.09;99888.09;5044931;28;19972;-66
2022/08/07 05:30:20;;;;;;;;;;;;;;;24.10;52.90;99890.78;5023646;28;19929;-67
2022/08/07 05:32:47;;;;;;;;;;;;;;;24.16;52.76;99889.34;5030147;28;20322;-67
2022/08/07 05:35:14;;;;;;;;;;;;;;;24.20;52.66;99881.84;5022091;28;19929;-67
2022/08/07 05:37:41;;;;;;;;;;;;;;;24.29;52.44;99882.44;5030973;28;20382;-66
2022/08/07 05:40:08;;;;;;;;;;;;;;;24.41;52.38;99881.47;5035375;28;19933;-67
2022/08/07 05:42:34;;;;;;;;;;;;;;;24.54;51.79;99876.53;5027108;28;19974;-67
2022/08/07 05:45:03;;;;;;;;;;;;;;;24.69;51.70;99885.22;5049636;28;19929;-66
2022/08/07 05:47:30;;;;;;;;;;;;;;;24.82;51.48;99877.50;5031102;28;19929;-68
2022/08/07 05:49:56;;;;;;;;;;;;;;;24.89;51.17;99891.63;5038000;28;19932;-66
2022/08/07 05:52:23;;;;;;;;;;;;;;;24.92;50.82;99888.91;5013558;28;19928;-65
2022/08/07 05:54:51;;;;;;;;;;;;;;;25.03;50.26;99882.69;5029249;28;19979;-66
2022/08/07 05:57:18;;;;;;;;;;;;;;;25.16;50.36;99889.72;5029258;28;19935;-66
2022/08/07 05:59:47;;;;;;;;;;;;;;;25.47;49.83;99889.84;5050735;28;20027;-67
2022/08/07 06:02:15;;;;;;;;;;;;;;;25.81;48.78;99895.59;5041204;28;20329;-69
2022/08/07 06:04:41;;;;;;;;;;;;;;;26.07;48.13;99888.38;5059020;28;19939;-67
2022/08/07 06:07:07;;;;;;;;;;;;;;;26.35;47.23;99881.56;5061655;28;20038;-67
2022/08/07 06:09:36;;;;;;;;;;;;;;;26.56;46.76;99891.44;5040852;28;20537;-67
2022/08/07 06:12:05;;;;;;;;;;;;;;;26.72;46.24;99882.78;5046977;28;20050;-65
2022/08/07 06:14:31;;;;;;;;;;;;;;;26.88;46.14;99891.81;5042617;28;19935;-71
2022/08/07 06:17:01;;;;;;;;;;;;;;;26.93;45.47;99890.66;5046262;28;20030;-71
2022/08/07 06:19:32;;;;;;;;;;;;;;;26.83;45.75;99888.50;5028452;28;19928;-72
2022/08/07 06:21:57;;;;;;;;;;;;;;;26.77;46.08;99890.84;5062554;28;19982;-71
2022/08/07 06:24:27;;;;;;;;;;;;;;;26.80;45.91;99883.69;5028509;28;20335;-71
2022/08/07 06:26:56;;;;;;;;;;;;;;;26.84;45.89;99878.91;5012543;28;20392;-72
2022/08/07 06:29:27;;;;;;;;;;;;;;;26.94;45.86;99883.84;5043366;28;19939;-72
2022/08/07 06:31:53;;;;;;;;;;;;;;;27.12;45.68;99900.06;5052407;28;19932;-71
2022/08/07 06:34:22;;;;;;;;;;;;;;;27.31;45.19;99888.59;5040099;28;19936;-72
2022/08/07 06:36:48;;;;;;;;;;;;;;;27.71;44.34;99888.16;5047137;28;20361;-72
2022/08/07 06:39:14;;;;;;;;;;;;;;;27.97;43.55;99891.94;5064293;28;20319;-71
2022/08/07 06:41:42;;;;;;;;;;;;;;;28.06;42.97;99889.56;5047455;28;19958;-73
2022/08/07 06:44:09;;;;;;;;;;;;;;;28.20;42.86;99897.31;5048368;28;19960;-70
2022/08/07 06:46:38;;;;;;;;;;;;;;;28.32;42.94;99896.16;5035040;28;19943;-70
2022/08/07 06:49:05;;;;;;;;;;;;;;;28.49;42.01;99893.81;5029022;28;19928;-70
2022/08/07 06:51:34;;;;;;;;;;;;;;;28.70;41.27;99907.94;5034150;28;20534;-72
2022/08/07 06:54:06;;;;;;;;;;;;;;;28.81;40.36;99910.84;5030269;28;20036;-71
2022/08/07 06:56:42;;;;;;;;;;;;;;;28.71;40.40;99897.53;5034421;28;19959;-71
2022/08/07 06:59:14;;;;;;;;;;;;;;;28.45;41.14;99900.25;5011584;28;19936;-70
2022/08/07 07:01:47;;;;;;;;;;;;;;;28.25;40.76;99904.53;5027747;28;19990;-71
2022/08/07 07:04:13;;;;;;;;;;;;;;;27.95;40.89;99908.38;5030190;28;19935;-71
2022/08/07 07:06:43;;;;;;;;;;;;;;;27.69;41.60;99905.38;5048176;28;19928;-71
2022/08/07 07:09:16;;;;;;;;;;;;;;;27.59;42.29;99900.50;5035112;28;19934;-70
2022/08/07 07:11:47;;;;;;;;;;;;;;;27.49;43.08;99902.00;5061911;28;19974;-71
2022/08/07 07:14:15;;;;;;;;;;;;;;;27.49;43.03;99899.19;5045634;28;19928;-70
2022/08/07 07:16:41;;;;;;;;;;;;;;;27.44;43.29;99910.78;5051748;28;19928;-70
2022/08/07 07:19:11;;;;;;;;;;;;;;;27.43;43.53;99906.34;5061181;28;19928;-73
2022/08/07 07:21:40;;;;;;;;;;;;;;;27.56;43.45;99909.72;5048099;28;19935;-71
2022/08/07 07:24:09;;;;;;;;;;;;;;;27.93;42.94;99908.78;5062335;28;19982;-70
2022/08/07 07:26:36;;;;;;;;;;;;;;;28.43;42.12;99908.28;5048903;28;19974;-72
2022/08/07 07:29:04;;;;;;;;;;;;;;;28.59;40.68;99905.09;5064210;28;19936;-70
2022/08/07 07:31:31;;;;;;;;;;;;;;;28.90;40.07;99906.84;5062689;28;19960;-71
2022/08/07 07:34:00;;;;;;;;;;;;;;;29.08;39.73;99901.25;5061461;28;20151;-70
2022/08/07 07:36:28;;;;;;;;;;;;;;;29.05;39.79;99907.69;5059317;28;19935;-71
2022/08/07 07:38:55;;;;;;;;;;;;;;;28.94;40.01;99893.56;5063356;28;19928;-69
2022/08/07 07:41:21;;;;;;;;;;;;;;;28.94;39.82;99893.56;5063147;28;19932;-71
2022/08/07 07:43:49;;;;;;;;;;;;;;;29.05;39.73;99896.44;5063903;28;19963;-72
2022/08/07 07:46:15;;;;;;;;;;;;;;;29.01;39.35;99900.03;5065024;28;19929;-67
2022/08/07 07:48:41;;;;;;;;;;;;;;;28.85;39.44;99899.59;5062538;28;19978;-71
2022/08/07 07:51:08;;;;;;;;;;;;;;;28.83;39.70;99890.75;5051048;28;19999;-71
2022/08/07 07:53:37;;;;;;;;;;;;;;;29.08;38.79;99882.34;5031360;28;20043;-71
2022/08/07 07:56:04;;;;;;;;;;;;;;;29.07;38.63;99894.03;5049134;28;19929;-72
2022/08/07 07:58:31;;;;;;;;;;;;;;;29.04;39.15;99880.75;5052491;28;19986;-71
2022/08/07 08:00:57;;;;;;;;;;;;;;;29.34;38.43;99885.16;5053813;28;19928;-72
2022/08/07 08:03:23;;;;;;;;;;;;;;;29.88;37.43;99885.16;5044276;28;19951;-71
2022/08/07 08:05:50;;;;;;;;;;;;;;;30.22;37.13;99886.72;5066074;28;20391;-71
2022/08/07 08:08:16;;;;;;;;;;;;;;;30.43;36.96;99889.44;5045193;28;19991;-69
2022/08/07 08:10:44;;;;;;;;;;;;;;;31.12;35.87;99886.25;5061627;28;20288;-71
2022/08/07 08:13:10;;;;;;;;;;;;;;;31.57;35.32;99884.72;5030894;28;19997;-72
2022/08/07 08:15:37;;;;;;;;;;;;;;;31.39;35.81;99882.06;5046757;28;19937;-70
2022/08/07 08:18:04;;;;;;;;;;;;;;;31.17;36.44;99875.75;5047030;28;19929;-69
2022/08/07 08:20:31;;;;;;;;;;;;;;;31.57;36.06;99878.28;5048219;28;19929;-71
2022/08/07 08:27:03;;;;;;;;;;;;;;;32.68;34.11;99870.56;5046967;28;19952;-71
2022/08/07 08:28:53;;;;;;;;;;;;;;;32.04;34.85;99869.31;5057336;28;19952;-67
2022/08/07 08:31:21;;;;;;;;;;;;;;;31.25;35.51;99861.19;5063408;28;19955;-71
2022/08/07 08:33:50;;;;;;;;;;;;;;;31.05;35.64;99862.91;5057680;28;19972;-70
2022/08/07 08:36:18;;;;;;;;;;;;;;;31.15;35.75;99867.69;5061748;28;19955;-71
2022/08/07 08:38:45;;;;;;;;;;;;;;;30.81;35.55;99868.34;5025208;28;19928;-71
2022/08/07 08:41:17;;;;;;;;;;;;;;;30.91;35.52;99870.28;5034085;28;20043;-72
2022/08/07 08:43:49;;;;;;;;;;;;;;;31.46;34.54;99870.69;5030703;28;19956;-71
2022/08/07 08:46:17;;;;;;;;;;;;;;;32.08;33.40;99859.59;5036182;28;19928;-71
2022/08/07 08:48:46;;;;;;;;;;;;;;;32.35;33.02;99855.25;5056917;28;19998;-70
2022/08/07 08:51:17;;;;;;;;;;;;;;;32.04;33.49;99850.34;4356294;28;10000840;-72
2022/08/07 08:53:46;;;;;;;;;;;;;;;32.11;32.95;99853.09;5028927;28;20419;-71
2022/08/07 08:56:15;;;;;;;;;;;;;;;32.16;33.25;99851.00;5043785;28;19929;-70
2022/08/07 08:58:47;;;;;;;;;;;;;;;32.13;33.67;99854.69;5043936;28;19928;-66
2022/08/07 09:01:16;;;;;;;;;;;;;;;31.99;33.90;99864.16;5043208;28;19936;-67
2022/08/07 09:03:48;;;;;;;;;;;;;;;32.42;33.31;99858.00;5069220;28;19929;-67
2022/08/07 09:06:20;;;;;;;;;;;;;;;32.74;33.02;99848.25;5035556;28;19928;-68
2022/08/07 09:08:54;;;;;;;;;;;;;;;33.14;32.08;99856.16;5054190;28;19958;-67
2022/08/07 09:11:25;;;;;;;;;;;;;;;33.26;32.10;99866.06;5044564;28;19935;-71
2022/08/07 09:13:57;;;;;;;;;;;;;;;33.77;31.64;99856.72;5042144;28;19942;-71
2022/08/07 09:16:26;;;;;;;;;;;;;;;34.20;30.91;99846.59;5012562;28;19976;-71
2022/08/07 09:19:01;;;;;;;;;;;;;;;34.62;30.08;99843.28;5033967;28;20295;-71
2022/08/07 09:21:31;;;;;;;;;;;;;;;35.39;29.31;99847.94;5064736;28;19928;-72
2022/08/07 09:24:02;;;;;;;;;;;;;;;36.19;27.98;99836.03;5064296;28;19928;-73
2022/08/07 09:26:32;;;;;;;;;;;;;;;36.33;27.85;99848.25;5044551;28;19982;-71
2022/08/07 09:29:05;;;;;;;;;;;;;;;36.24;27.02;99836.72;5043631;28;19932;-70
2022/08/07 09:31:35;;;;;;;;;;;;;;;36.30;27.10;99827.16;5044080;28;19928;-70
2022/08/07 09:34:07;;;;;;;;;;;;;;;36.56;27.05;99823.56;5044023;28;19980;-72
2022/08/07 09:36:34;;;;;;;;;;;;;;;36.58;26.89;99816.19;5027198;28;20336;-70
2022/08/07 09:39:04;;;;;;;;;;;;;;;35.85;26.91;99826.03;5024018;28;19928;-71
2022/08/07 09:41:34;;;;;;;;;;;;;;;34.54;28.26;99830.47;5043460;28;19936;-70
2022/08/07 09:44:05;;;;;;;;;;;;;;;33.07;29.43;99810.97;5042528;28;19928;-70
2022/08/07 09:46:37;;;;;;;;;;;;;;;32.05;31.55;99814.41;5023194;28;19929;-70
2022/08/07 09:49:11;;;;;;;;;;;;;;;31.27;33.42;99818.41;5049347;28;19928;-71
2022/08/07 09:51:46;;;;;;;;;;;;;;;30.80;33.76;99807.47;5043363;28;19928;-71
2022/08/07 09:54:14;;;;;;;;;;;;;;;30.49;34.40;99808.03;5042440;28;19936;-70
2022/08/07 09:57:01;;;;;;;;;;;;;;;30.33;35.01;99808.53;5026203;28;19959;-70
2022/08/07 09:59:35;;;;;;;;;;;;;;;30.37;34.96;99797.25;5045027;28;19928;-71
2022/08/07 10:02:07;;;;;;;;;;;;;;;30.79;34.24;99803.06;5044674;28;20714;-70
2022/08/07 10:04:47;;;;;;;;;;;;;;;30.93;34.34;99797.31;5047120;28;19936;-70
2022/08/07 10:07:20;;;;;;;;;;;;;;;30.66;34.38;99805.53;5056262;28;19935;-71
2022/08/07 10:09:55;;;;;;;;;;;;;;;30.34;34.23;99803.69;5057591;28;20402;-71
2022/08/07 10:12:29;;;;;;;;;;;;;;;30.04;34.20;99810.66;5052180;28;19955;-70
2022/08/07 10:15:11;;;;;;;;;;;;;;;29.82;35.07;99808.72;5058814;28;19935;-67
2022/08/07 10:17:50;;;;;;;;;;;;;;;29.92;35.72;99803.44;5072135;28;19934;-70
2022/08/07 10:20:21;;;;;;;;;;;;;;;30.09;36.98;99794.16;5043937;28;20305;-70
2022/08/07 10:22:54;;;;;;;;;;;;;;;29.50;39.29;99797.53;5054470;28;20177;-70
2022/08/07 10:25:27;;;;;;;;;;;;;;;29.04;42.24;99813.22;5024942;28;20014;-72
2022/08/07 10:28:02;;;;;;;;;;;;;;;29.02;42.47;99813.63;5052097;28;20370;-71
2022/08/07 10:30:33;;;;;;;;;;;;;;;30.81;39.36;99807.06;5035195;28;20051;-71
2022/08/07 10:33:09;;;;;;;;;;;;;;;33.34;35.54;99804.44;5048145;28;20293;-71
2022/08/07 10:35:45;;;;;;;;;;;;;;;35.26;32.88;99808.91;5033081;28;19929;-67
2022/08/07 10:38:19;;;;;;;;;;;;;;;36.92;29.15;99796.00;5052681;28;19929;-66
2022/08/07 10:40:47;;;;;;;;;;;;;;;37.52;26.95;99785.84;5041806;28;19928;-67
2022/08/07 10:43:16;;;;;;;;;;;;;;;37.52;25.05;99783.78;5043313;28;19929;-68
2022/08/07 10:45:45;;;;;;;;;;;;;;;37.06;25.17;99777.66;5051513;28;20082;-68
2022/08/07 10:48:26;;;;;;;;;;;;;;;36.85;25.11;99783.59;5032280;28;19929;-67
2022/08/07 10:50:53;;;;;;;;;;;;;;;37.36;24.12;99779.06;5037249;28;20031;-67
2022/08/07 10:53:24;;;;;;;;;;;;;;;37.36;24.30;99804.69;5063388;28;19935;-66
2022/08/07 10:55:52;;;;;;;;;;;;;;;36.70;25.42;99780.41;5068226;28;19935;-71
2022/08/07 10:58:30;;;;;;;;;;;;;;;36.47;25.23;99776.66;5049545;28;20400;-71
2022/08/07 11:01:16;;;;;;;;;;;;;;;36.41;25.44;99763.44;5048336;28;19933;-70
2022/08/07 11:03:47;;;;;;;;;;;;;;;36.60;24.93;99756.75;5049646;28;19978;-70
2022/08/07 11:06:19;;;;;;;;;;;;;;;36.77;25.03;99758.69;5050706;28;20119;-66
2022/08/07 11:08:55;;;;;;;;;;;;;;;36.98;24.75;99757.94;5049231;28;19964;-66
2022/08/07 11:11:24;;;;;;;;;;;;;;;36.80;24.05;99761.38;5012548;28;19929;-67
2022/08/07 11:13:52;;;;;;;;;;;;;;;36.74;23.89;99760.38;5047614;28;19928;-67
2022/08/07 11:16:21;;;;;;;;;;;;;;;36.99;23.65;99750.19;5067891;28;19977;-64
2022/08/07 11:18:48;;;;;;;;;;;;;;;37.13;23.58;99748.94;5033070;28;20034;-66
2022/08/07 11:21:19;;;;;;;;;;;;;;;37.76;23.15;99746.28;5045150;28;19929;-66
2022/08/07 11:23:50;;;;;;;;;;;;;;;38.62;22.05;99754.81;4680904;28;9999708;-67
2022/08/07 11:26:20;;;;;;;;;;;;;;;38.77;21.44;99775.78;5024860;28;19945;-68
2022/08/07 11:28:50;;;;;;;;;;;;;;;38.74;20.86;99762.47;5026095;28;19987;-70
2022/08/07 11:31:21;;;;;;;;;;;;;;;38.79;20.91;99746.75;5023078;28;20459;-67
2022/08/07 11:33:50;;;;;;;;;;;;;;;38.10;21.32;99749.53;5026804;28;19929;-66
2022/08/07 11:36:22;;;;;;;;;;;;;;;36.33;23.69;99757.97;5025393;28;20300;-68
2022/08/07 11:38:52;;;;;;;;;;;;;;;34.85;25.75;99771.38;5023731;28;19929;-68
2022/08/07 11:41:21;;;;;;;;;;;;;;;34.01;26.79;99757.47;5026909;28;20028;-67
2022/08/07 11:43:52;;;;;;;;;;;;;;;34.49;26.13;99766.50;5026430;28;19933;-67
2022/08/07 11:46:33;;;;;;;;;;;;;;;35.11;25.21;99767.91;5026816;28;19929;-68
2022/08/07 11:49:13;;;;;;;;;;;;;;;34.30;25.66;99754.00;5026989;28;19940;-67
2022/08/07 11:51:45;;;;;;;;;;;;;;;34.17;26.72;99765.19;5025774;28;19933;-66
2022/08/07 11:54:28;;;;;;;;;;;;;;;34.12;26.79;99777.88;5025553;28;19929;-67
2022/08/07 11:57:02;;;;;;;;;;;;;;;33.29;30.67;99768.91;5039499;28;20082;-69
2022/08/07 11:59:39;;;;;;;;;;;;;;;32.58;32.36;99760.38;5032575;28;20024;-67
2022/08/07 12:02:14;;;;;;;;;;;;;;;31.82;34.28;99765.03;5039415;28;20154;-71
2022/08/07 12:05:00;;;;;;;;;;;;;;;31.14;35.42;99775.75;5043809;28;20035;-70
2022/08/07 12:07:29;;;;;;;;;;;;;;;30.75;36.22;99757.94;5045018;28;19928;-71
2022/08/07 12:09:57;;;;;;;;;;;;;;;30.24;38.06;99763.88;5044918;28;19929;-70
2022/08/07 12:12:24;;;;;;;;;;;;;;;29.89;38.82;99779.69;5043362;28;19986;-70
2022/08/07 12:14:54;;;;;;;;;;;;;;;29.77;39.11;99785.81;5046172;28;20051;-72
2022/08/07 12:17:22;;;;;;;;;;;;;;;29.81;39.13;99797.84;5044139;28;19955;-71
2022/08/07 12:19:50;;;;;;;;;;;;;;;29.75;38.74;99803.09;5035245;28;19933;-72
2022/08/07 12:22:20;;;;;;;;;;;;;;;29.76;38.73;99809.53;5040836;28;19954;-70
2022/08/07 12:27:36;;;;;;;;;;;;;;;29.14;39.58;99824.47;5033945;28;19929;-71
2022/08/07 12:30:04;;;;;;;;;;;;;;;28.99;39.90;99828.50;5037082;28;20031;-71
2022/08/07 12:32:36;;;;;;;;;;;;;;;28.84;39.90;99819.22;5043353;28;19933;-71
2022/08/07 12:35:03;;;;;;;;;;;;;;;28.63;39.87;99819.94;5036093;28;19993;-70
2022/08/07 12:37:32;;;;;;;;;;;;;;;28.38;40.14;99817.91;5038756;28;19935;-71
2022/08/07 12:40:00;;;;;;;;;;;;;;;28.30;40.19;99822.69;5039153;28;19936;-70
2022/08/07 12:42:28;;;;;;;;;;;;;;;28.27;40.66;99832.69;5040312;28;19929;-70
2022/08/07 12:44:54;;;;;;;;;;;;;;;28.11;40.91;99827.41;5019674;28;20305;-70
2022/08/07 12:47:28;;;;;;;;;;;;;;;28.08;41.04;99836.59;5026046;28;19933;-71
2022/08/07 12:49:58;;;;;;;;;;;;;;;28.05;41.09;99850.66;5023645;28;19929;-72
2022/08/07 12:52:35;;;;;;;;;;;;;;;27.99;40.35;99861.44;5021633;28;19929;-70
2022/08/07 12:55:04;;;;;;;;;;;;;;;27.96;39.40;99874.28;5043207;28;19929;-71
2022/08/07 12:57:32;;;;;;;;;;;;;;;27.77;40.28;99874.56;5042730;28;19935;-72
2022/08/07 12:59:58;;;;;;;;;;;;;;;27.67;41.03;99871.28;5043103;28;20270;-72